Time;durP1;ratioP1;P1;durP2;ratioP2;P2;SDS_P1;SDS_P2;PMS_P1;PMS_P2;Temp;Humidity;BMP_temperature;BMP_pressure;BME280_temperature;BME280_humidity;BME280_pressure;Samples;Min_cycle;Max_cycle;Signal;HPM_P1;HPM_P2
2023/11/02 00:02:27;;;;;;;5.68;0.50;;;10.30;99.90;;;;;;5025301;28;20041;-77
2023/11/02 00:04:55;;;;;;;3.97;0.63;;;10.30;99.90;;;;;;5027807;28;20033;-75
2023/11/02 00:07:21;;;;;;;7.47;0.55;;;10.30;99.90;;;;;;5020889;28;20045;-77
2023/11/02 00:09:48;;;;;;;3.30;0.70;;;10.30;99.90;;;;;;5012609;28;20036;-75
2023/11/02 00:12:15;;;;;;;5.25;0.55;;;10.40;99.90;;;;;;5021460;28;20047;-76
2023/11/02 00:14:45;;;;;;;1.80;0.47;;;10.30;99.90;;;;;;5019566;28;20056;-75
2023/11/02 00:17:35;;;;;;;4.57;0.40;;;10.30;99.90;;;;;;5036383;28;20029;-75
2023/11/02 00:20:03;;;;;;;5.43;0.50;;;10.50;99.90;;;;;;4967248;28;20407;-77
2023/11/02 00:22:29;;;;;;;1.77;0.55;;;10.50;99.90;;;;;;5011714;28;20466;-77
2023/11/02 00:25:01;;;;;;;2.53;0.30;;;10.50;99.90;;;;;;5020333;28;20059;-77
2023/11/02 00:27:26;;;;;;;2.92;0.40;;;10.50;99.90;;;;;;5024198;28;20044;-76
2023/11/02 00:29:52;;;;;;;3.33;0.85;;;10.50;99.90;;;;;;5024292;28;20044;-75
2023/11/02 00:32:19;;;;;;;2.85;0.50;;;10.50;99.90;;;;;;5044602;28;20037;-76
2023/11/02 00:34:45;;;;;;;4.15;0.50;;;10.50;99.90;;;;;;5023741;28;20033;-78
2023/11/02 00:37:12;;;;;;;10.05;0.60;;;10.60;99.90;;;;;;5022526;28;20060;-77
2023/11/02 00:39:40;;;;;;;1.38;0.35;;;10.60;99.90;;;;;;5014749;28;20060;-77
2023/11/02 00:42:06;;;;;;;4.25;0.65;;;10.60;99.90;;;;;;5024053;28;20116;-77
2023/11/02 00:44:33;;;;;;;5.03;0.45;;;10.60;99.90;;;;;;5018383;28;20179;-77
2023/11/02 00:46:59;;;;;;;1.75;0.30;;;10.60;99.90;;;;;;5019904;28;20025;-76
2023/11/02 00:49:31;;;;;;;2.10;0.40;;;10.70;99.90;;;;;;5027340;28;20148;-76
2023/11/02 00:52:01;;;;;;;6.07;0.40;;;10.60;99.90;;;;;;5025172;28;20448;-76
2023/11/02 00:54:58;;;;;;;2.42;0.20;;;10.70;99.90;;;;;;5019415;28;20037;-76
2023/11/02 00:57:28;;;;;;;3.35;0.50;;;10.70;99.90;;;;;;5019278;28;20077;-77
2023/11/02 00:59:56;;;;;;;6.93;0.43;;;10.70;99.90;;;;;;5024915;28;20029;-76
2023/11/02 01:02:22;;;;;;;12.73;0.73;;;10.70;99.90;;;;;;5023776;28;20028;-76
2023/11/02 01:04:55;;;;;;;2.33;0.40;;;10.80;99.90;;;;;;5016071;28;20368;-77
2023/11/02 01:07:22;;;;;;;2.65;0.40;;;10.80;99.90;;;;;;5022952;28;20682;-76
2023/11/02 01:09:47;;;;;;;3.80;0.40;;;10.80;99.90;;;;;;5045389;28;20021;-76
2023/11/02 01:12:31;;;;;;;4.80;0.70;;;10.80;99.90;;;;;;5024182;28;20029;-78
2023/11/02 01:14:58;;;;;;;7.13;0.30;;;10.80;99.90;;;;;;5022053;28;20041;-78
2023/11/02 01:17:46;;;;;;;5.20;0.82;;;10.90;99.90;;;;;;5031535;28;20061;-77
2023/11/02 01:20:41;;;;;;;4.50;0.50;;;10.90;99.90;;;;;;5019961;28;20037;-77
2023/11/02 01:23:07;;;;;;;2.50;0.25;;;10.90;99.90;;;;;;5020155;28;20545;-74
2023/11/02 01:25:40;;;;;;;3.80;0.70;;;11.00;99.90;;;;;;5021378;28;20029;-75
2023/11/02 01:28:06;;;;;;;1.35;0.50;;;11.00;99.90;;;;;;5022458;28;20029;-75
2023/11/02 01:30:40;;;;;;;2.58;0.30;;;11.00;99.90;;;;;;5013147;28;20108;-76
2023/11/02 01:33:34;;;;;;;4.80;0.30;;;11.10;99.90;;;;;;5026263;28;20086;-76
2023/11/02 01:49:09;;;;;;;3.17;0.40;;;11.10;99.90;;;;;;5780429;23;20046;-75
2023/11/02 01:51:42;;;;;;;1.98;0.30;;;11.10;99.90;;;;;;5027096;28;20436;-75
2023/11/02 01:54:36;;;;;;;2.60;0.40;;;11.10;99.90;;;;;;5027941;28;20041;-75
2023/11/02 01:57:05;;;;;;;3.45;0.45;;;11.10;99.90;;;;;;4979501;28;20529;-75
2023/11/02 01:59:41;;;;;;;3.70;0.47;;;11.10;99.90;;;;;;5005950;28;20479;-76
2023/11/02 02:02:28;;;;;;;1.90;0.40;;;11.20;99.90;;;;;;5006673;28;20061;-75
2023/11/02 02:05:03;;;;;;;2.80;0.30;;;11.30;99.90;;;;;;5010102;28;20120;-75
2023/11/02 02:07:46;;;;;;;2.63;0.40;;;11.30;99.90;;;;;;5009748;28;20030;-75
2023/11/02 02:10:19;;;;;;;4.03;0.30;;;11.30;99.90;;;;;;5006465;28;20038;-77
2023/11/02 02:13:11;;;;;;;4.22;0.20;;;11.20;99.90;;;;;;5005821;28;20037;-76
2023/11/02 02:15:45;;;;;;;5.22;0.55;;;11.20;99.90;;;;;;5005519;28;20333;-77
2023/11/02 02:18:56;;;;;;;6.50;0.47;;;11.20;99.90;;;;;;5006730;28;20029;-76
2023/11/02 02:21:28;;;;;;;;;;;11.20;99.90;;;;;;4966346;28;20025;-77
2023/11/02 02:24:04;;;;;;;6.85;0.55;;;11.10;99.90;;;;;;5010922;28;20285;-75
2023/11/02 02:26:57;;;;;;;2.45;0.60;;;11.20;99.90;;;;;;5010659;28;20458;-76
2023/11/02 02:29:32;;;;;;;4.60;1.08;;;11.20;99.90;;;;;;5009710;28;20501;-76
2023/11/02 02:32:19;;;;;;;5.97;0.60;;;11.20;99.90;;;;;;5024000;28;20663;-76
2023/11/02 02:34:58;;;;;;;3.92;0.75;;;11.20;99.90;;;;;;5028417;28;20048;-75
2023/11/02 02:37:39;;;;;;;3.15;0.45;;;11.20;99.90;;;;;;5030498;28;20025;-77
2023/11/02 02:40:07;;;;;;;2.72;0.50;;;11.20;99.90;;;;;;5028975;28;20044;-75
2023/11/02 02:42:36;;;;;;;5.05;0.52;;;11.20;99.90;;;;;;5029541;28;20022;-75
2023/11/02 02:45:09;;;;;;;1.67;0.40;;;11.20;99.90;;;;;;5023787;28;20479;-75
2023/11/02 02:47:40;;;;;;;2.80;0.98;;;11.20;99.90;;;;;;5009107;28;20044;-75
2023/11/02 02:50:13;;;;;;;2.53;0.40;;;11.20;99.90;;;;;;5019592;28;20065;-74
2023/11/02 02:52:41;;;;;;;4.38;0.43;;;11.30;99.90;;;;;;5018367;28;20040;-75
2023/11/02 02:55:09;;;;;;;3.70;0.40;;;11.30;99.90;;;;;;5015952;28;20033;-76
2023/11/02 02:57:41;;;;;;;2.75;0.52;;;11.30;99.90;;;;;;5029741;28;20037;-75
2023/11/02 03:00:11;;;;;;;1.42;0.25;;;11.20;99.90;;;;;;5030844;28;20031;-76
2023/11/02 03:02:39;;;;;;;7.13;0.30;;;11.20;99.90;;;;;;5028004;28;20052;-76
2023/11/02 03:05:08;;;;;;;4.18;0.52;;;11.20;99.90;;;;;;5028906;28;20375;-76
2023/11/02 03:07:36;;;;;;;7.50;1.13;;;11.20;99.90;;;;;;5029664;28;20021;-75
2023/11/02 03:10:07;;;;;;;4.63;0.65;;;11.20;99.90;;;;;;5030592;28;20041;-75
2023/11/02 03:12:36;;;;;;;7.75;0.50;;;11.20;99.90;;;;;;5028007;28;20026;-76
2023/11/02 03:15:06;;;;;;;7.65;0.80;;;11.10;99.90;;;;;;5027044;28;20399;-75
2023/11/02 03:17:37;;;;;;;1.90;0.20;;;11.10;99.90;;;;;;5008195;28;20042;-76
2023/11/02 03:20:07;;;;;;;5.80;1.08;;;11.10;99.90;;;;;;5016947;28;20038;-76
2023/11/02 03:22:34;;;;;;;6.40;0.60;;;11.00;99.90;;;;;;5007771;28;20615;-76
2023/11/02 03:25:42;;;;;;;4.13;0.40;;;10.90;99.90;;;;;;5008805;28;20495;-76
2023/11/02 03:28:10;;;;;;;2.78;0.30;;;10.90;99.90;;;;;;4999476;28;20038;-76
2023/11/02 03:31:04;;;;;;;2.38;0.52;;;10.80;99.90;;;;;;5007761;28;20084;-76
2023/11/02 03:33:50;;;;;;;6.18;0.60;;;10.80;99.90;;;;;;5013309;28;20216;-76
2023/11/02 03:36:18;;;;;;;3.20;0.55;;;10.70;99.90;;;;;;5008551;28;20120;-75
2023/11/02 03:39:11;;;;;;;6.80;0.40;;;10.70;99.90;;;;;;5016271;28;20049;-76
2023/11/02 03:42:14;;;;;;;3.22;0.40;;;10.70;99.90;;;;;;5009129;28;20148;-77
2023/11/02 03:44:52;;;;;;;5.03;1.10;;;10.60;99.90;;;;;;5007595;28;20038;-75
2023/11/02 03:47:36;;;;;;;6.93;0.68;;;10.70;99.90;;;;;;5008506;28;20091;-75
2023/11/02 03:50:11;;;;;;;4.47;0.38;;;10.70;99.90;;;;;;5024411;28;20049;-77
2023/11/02 03:53:20;;;;;;;7.72;0.70;;;10.80;99.90;;;;;;5027028;28;20103;-74
2023/11/02 03:56:11;;;;;;;2.60;0.20;;;10.80;99.90;;;;;;5024572;28;20030;-75
2023/11/02 03:58:46;;;;;;;2.30;0.50;;;10.90;99.90;;;;;;5007296;28;20116;-75
2023/11/02 04:01:18;;;;;;;7.07;0.57;;;10.90;99.90;;;;;;5009580;28;20064;-75
2023/11/02 04:03:47;;;;;;;3.17;0.50;;;10.90;99.90;;;;;;5007357;28;20034;-76
2023/11/02 04:06:21;;;;;;;2.20;0.32;;;10.90;99.90;;;;;;5008082;28;20557;-75
2023/11/02 04:08:49;;;;;;;1.83;0.25;;;10.90;99.90;;;;;;5008746;28;20030;-76
2023/11/02 04:11:26;;;;;;;3.55;0.47;;;10.90;99.90;;;;;;5020968;28;20426;-75
2023/11/02 04:14:12;;;;;;;2.63;0.95;;;11.00;99.90;;;;;;5015439;28;20041;-75
2023/11/02 04:16:38;;;;;;;2.47;0.60;;;10.90;99.90;;;;;;5008528;28;20069;-76
2023/11/02 04:19:04;;;;;;;2.30;0.30;;;11.00;99.90;;;;;;5018457;28;20057;-76
2023/11/02 04:21:30;;;;;;;4.85;0.85;;;11.00;99.90;;;;;;5026694;28;20595;-76
2023/11/02 04:23:56;;;;;;;4.55;0.60;;;11.00;99.90;;;;;;5028893;28;20033;-76
2023/11/02 04:26:21;;;;;;;8.00;1.27;;;11.00;99.90;;;;;;5028509;28;20021;-75
2023/11/02 04:28:47;;;;;;;1.05;0.20;;;11.00;99.90;;;;;;5027027;28;20026;-76
2023/11/02 04:31:13;;;;;;;5.82;0.40;;;11.10;99.90;;;;;;5028713;28;20048;-76
2023/11/02 04:33:38;;;;;;;3.10;0.80;;;11.10;99.90;;;;;;5026311;28;20100;-76
2023/11/02 04:36:04;;;;;;;3.70;0.75;;;11.20;99.90;;;;;;5028547;28;20033;-76
2023/11/02 04:38:30;;;;;;;4.82;0.65;;;11.10;99.90;;;;;;5027584;28;20075;-74
2023/11/02 04:40:57;;;;;;;3.00;0.68;;;11.20;99.90;;;;;;5027236;28;20026;-75
2023/11/02 04:43:23;;;;;;;3.15;0.57;;;11.10;99.90;;;;;;5026006;28;20060;-77
2023/11/02 04:45:48;;;;;;;3.88;0.88;;;11.20;99.90;;;;;;5027926;28;20086;-76
2023/11/02 04:48:14;;;;;;;5.90;0.52;;;11.10;99.90;;;;;;5028660;28;20041;-75
2023/11/02 04:50:40;;;;;;;4.30;0.68;;;11.20;99.90;;;;;;5035248;28;20063;-75
2023/11/02 04:53:06;;;;;;;3.42;0.77;;;11.30;99.90;;;;;;5010552;28;20029;-76
2023/11/02 04:55:32;;;;;;;6.45;0.40;;;11.20;99.90;;;;;;5027064;28;20192;-75
2023/11/02 04:57:58;;;;;;;2.50;0.45;;;11.30;99.90;;;;;;5010389;28;20124;-75
2023/11/02 05:00:24;;;;;;;5.07;0.30;;;11.30;99.90;;;;;;5010167;28;20394;-75
2023/11/02 05:02:49;;;;;;;1.55;0.20;;;11.30;99.90;;;;;;5032783;28;20037;-74
2023/11/02 05:05:15;;;;;;;2.70;0.68;;;11.30;99.90;;;;;;5035348;28;20821;-75
2023/11/02 05:07:40;;;;;;;4.15;0.32;;;11.30;99.90;;;;;;5027166;28;20049;-76
2023/11/02 05:10:07;;;;;;;4.47;0.30;;;11.20;99.90;;;;;;5010230;28;20079;-76
2023/11/02 05:12:32;;;;;;;5.07;0.70;;;11.20;99.90;;;;;;5026959;28;20040;-76
2023/11/02 05:14:58;;;;;;;6.97;0.30;;;11.30;99.90;;;;;;5027996;28;20034;-75
2023/11/02 05:17:23;;;;;;;2.28;0.50;;;11.30;99.90;;;;;;5009988;28;20033;-76
2023/11/02 05:19:49;;;;;;;10.15;0.85;;;11.30;99.90;;;;;;5027644;28;20032;-75
2023/11/02 05:22:14;;;;;;;1.10;0.22;;;11.40;99.90;;;;;;5010171;28;20121;-76
2023/11/02 05:24:40;;;;;;;2.10;0.30;;;11.40;99.90;;;;;;5026736;28;20081;-76
2023/11/02 05:27:06;;;;;;;8.27;0.40;;;11.30;99.90;;;;;;5031063;28;20482;-75
2023/11/02 05:29:32;;;;;;;6.70;0.77;;;11.10;99.90;;;;;;5046141;28;20036;-75
2023/11/02 05:31:58;;;;;;;1.52;0.28;;;11.00;99.90;;;;;;5042659;28;20036;-76
2023/11/02 05:34:24;;;;;;;3.20;0.38;;;10.80;99.90;;;;;;5017127;28;20494;-75
2023/11/02 05:36:50;;;;;;;5.80;0.80;;;10.70;99.90;;;;;;5046947;28;20060;-75
2023/11/02 05:39:16;;;;;;;2.90;0.98;;;10.50;99.90;;;;;;5019123;28;20017;-77
2023/11/02 05:41:41;;;;;;;5.35;0.55;;;10.30;99.90;;;;;;5011385;28;20109;-75
2023/11/02 05:44:07;;;;;;;6.22;1.02;;;10.20;99.90;;;;;;5009966;28;20029;-77
2023/11/02 05:46:35;;;;;;;2.65;0.52;;;10.10;99.90;;;;;;5030724;28;20057;-75
2023/11/02 05:49:00;;;;;;;1.42;0.63;;;10.10;99.90;;;;;;5024969;28;20115;-76
2023/11/02 05:51:26;;;;;;;2.88;1.23;;;10.00;99.90;;;;;;5028498;28;20446;-77
2023/11/02 05:53:51;;;;;;;2.40;0.30;;;9.90;99.90;;;;;;5043127;28;20418;-76
2023/11/02 05:56:17;;;;;;;9.02;0.50;;;9.90;99.90;;;;;;5049175;28;20091;-77
2023/11/02 05:58:43;;;;;;;3.10;0.40;;;9.90;99.90;;;;;;5049826;28;20486;-76
2023/11/02 06:01:09;;;;;;;6.65;0.45;;;9.90;99.90;;;;;;5044795;28;20025;-75
2023/11/02 06:03:34;;;;;;;1.00;0.30;;;9.80;99.90;;;;;;5034422;28;20052;-77
2023/11/02 06:06:00;;;;;;;1.98;0.50;;;9.90;99.90;;;;;;5038662;28;20033;-77
2023/11/02 06:08:25;;;;;;;3.25;0.20;;;9.80;99.90;;;;;;5049133;28;20534;-76
2023/11/02 06:10:51;;;;;;;2.95;0.50;;;9.80;99.90;;;;;;5037743;28;20033;-75
2023/11/02 06:13:17;;;;;;;3.28;0.43;;;9.90;99.90;;;;;;5050013;28;20052;-77
2023/11/02 06:15:42;;;;;;;1.90;0.88;;;9.90;99.90;;;;;;5042308;28;20036;-77
2023/11/02 06:18:08;;;;;;;2.28;0.38;;;9.90;99.90;;;;;;5049673;28;20385;-76
2023/11/02 06:20:34;;;;;;;4.97;0.40;;;9.90;99.90;;;;;;5048882;28;20037;-77
2023/11/02 06:23:01;;;;;;;3.92;0.20;;;10.00;99.90;;;;;;5049605;28;20055;-77
2023/11/02 06:25:27;;;;;;;9.63;0.50;;;10.00;99.90;;;;;;5040174;28;20036;-77
2023/11/02 06:27:53;;;;;;;1.40;0.28;;;10.00;99.90;;;;;;5042526;28;20397;-76
2023/11/02 06:30:19;;;;;;;1.67;0.35;;;10.00;99.90;;;;;;5041320;28;20025;-76
2023/11/02 06:32:45;;;;;;;0.98;0.17;;;10.00;99.90;;;;;;5048561;28;20498;-77
2023/11/02 06:35:10;;;;;;;2.65;0.32;;;10.00;99.90;;;;;;5044172;28;20051;-77
2023/11/02 06:37:59;;;;;;;3.53;0.60;;;10.00;99.90;;;;;;5048455;28;20063;-76
2023/11/02 06:40:28;;;;;;;1.63;0.30;;;10.00;99.90;;;;;;5042227;28;20505;-79
2023/11/02 06:42:57;;;;;;;1.90;0.33;;;10.00;99.90;;;;;;5035858;28;20075;-77
2023/11/02 06:45:22;;;;;;;3.72;1.02;;;10.10;99.90;;;;;;5035699;28;20407;-77
2023/11/02 06:47:48;;;;;;;1.30;0.20;;;10.10;99.90;;;;;;5039969;28;20037;-76
2023/11/02 06:50:14;;;;;;;2.22;0.30;;;10.10;99.90;;;;;;5048942;28;20055;-76
2023/11/02 06:52:40;;;;;;;0.90;0.25;;;10.10;99.90;;;;;;5034831;28;20033;-77
2023/11/02 06:55:06;;;;;;;2.08;0.30;;;10.10;99.90;;;;;;5048262;28;20033;-76
2023/11/02 06:57:31;;;;;;;11.32;0.30;;;10.20;99.90;;;;;;5040491;28;20029;-77
2023/11/02 06:59:57;;;;;;;1.95;0.30;;;10.20;99.90;;;;;;5048885;28;20037;-76
2023/11/02 07:02:23;;;;;;;6.63;1.05;;;10.20;99.90;;;;;;5049023;28;20907;-78
2023/11/02 07:04:51;;;;;;;11.18;0.47;;;10.20;99.90;;;;;;5037638;28;20056;-77
2023/11/02 07:07:17;;;;;;;3.55;0.22;;;10.20;99.90;;;;;;5048201;28;20025;-77
2023/11/02 07:09:43;;;;;;;1.50;0.30;;;10.20;99.90;;;;;;5043311;28;20029;-76
2023/11/02 07:12:14;;;;;;;0.35;0.28;;;10.30;99.90;;;;;;5048887;28;20033;-76
2023/11/02 07:14:40;;;;;;;0.73;0.20;;;10.30;99.90;;;;;;5046371;28;20059;-76
2023/11/02 07:17:06;;;;;;;1.15;0.30;;;10.40;99.90;;;;;;5048921;28;20040;-76
2023/11/02 07:19:31;;;;;;;3.42;0.25;;;10.50;99.90;;;;;;5033201;28;20049;-76
2023/11/02 07:21:58;;;;;;;2.47;0.30;;;10.50;99.90;;;;;;5049648;28;20029;-76
2023/11/02 07:24:24;;;;;;;0.73;0.30;;;10.50;99.90;;;;;;5037098;28;20084;-75
2023/11/02 07:26:50;;;;;;;1.08;0.28;;;10.50;99.90;;;;;;5048776;28;20482;-77
2023/11/02 07:29:15;;;;;;;1.13;0.20;;;10.60;99.90;;;;;;5025565;28;20064;-77
2023/11/02 07:31:41;;;;;;;1.80;0.20;;;10.70;99.90;;;;;;5035734;28;20036;-77
2023/11/02 07:34:07;;;;;;;0.30;0.10;;;10.70;99.90;;;;;;5027008;28;20026;-76
2023/11/02 07:36:35;;;;;;;0.93;0.17;;;10.80;99.90;;;;;;5048532;28;20033;-79
2023/11/02 07:39:01;;;;;;;1.35;0.38;;;10.90;99.90;;;;;;5047967;28;20474;-77
2023/11/02 07:41:27;;;;;;;1.55;0.17;;;11.00;99.90;;;;;;5029845;28;20029;-78
2023/11/02 07:43:53;;;;;;;2.00;0.73;;;11.10;99.90;;;;;;5031907;28;20493;-75
2023/11/02 07:46:19;;;;;;;0.38;0.00;;;11.20;99.90;;;;;;5050296;28;20112;-77
2023/11/02 07:48:45;;;;;;;1.58;0.55;;;11.20;99.90;;;;;;5037724;28;20883;-75
2023/11/02 07:51:15;;;;;;;1.30;0.25;;;11.30;99.90;;;;;;5050617;28;20044;-76
2023/11/02 07:53:41;;;;;;;1.05;0.35;;;11.30;99.90;;;;;;5033221;28;20375;-77
2023/11/02 07:56:08;;;;;;;2.50;0.20;;;11.20;99.90;;;;;;5034794;28;20064;-77
2023/11/02 07:58:36;;;;;;;2.30;0.20;;;11.20;99.90;;;;;;5045625;28;20045;-79
2023/11/02 08:01:02;;;;;;;2.75;0.28;;;11.20;99.90;;;;;;5048095;28;20490;-76
2023/11/02 08:03:28;;;;;;;1.80;0.70;;;11.10;99.90;;;;;;5033763;28;20033;-77
2023/11/02 08:05:53;;;;;;;1.65;0.30;;;11.10;99.90;;;;;;5032086;28;20033;-77
2023/11/02 08:08:19;;;;;;;0.95;0.22;;;11.10;99.90;;;;;;5046806;28;20047;-74
2023/11/02 08:10:45;;;;;;;1.67;0.43;;;11.00;99.90;;;;;;5047378;28;20175;-74
2023/11/02 08:13:11;;;;;;;1.27;0.30;;;11.00;99.90;;;;;;5048002;28;20473;-79
2023/11/02 08:15:37;;;;;;;3.40;0.45;;;11.00;99.90;;;;;;5046276;28;20518;-75
2023/11/02 08:18:02;;;;;;;1.90;0.30;;;11.00;99.90;;;;;;5033457;28;20033;-75
2023/11/02 08:20:28;;;;;;;2.72;0.77;;;11.00;99.90;;;;;;5030330;28;20139;-77
2023/11/02 08:22:54;;;;;;;2.55;0.50;;;10.90;99.90;;;;;;5037640;28;20113;-77
2023/11/02 08:25:19;;;;;;;2.50;0.30;;;11.00;99.90;;;;;;5047529;28;20037;-77
2023/11/02 08:27:47;;;;;;;2.90;0.32;;;11.00;99.90;;;;;;5048047;28;20037;-77
2023/11/02 08:30:13;;;;;;;1.60;0.15;;;11.00;99.90;;;;;;5049502;28;20061;-77
2023/11/02 08:32:38;;;;;;;5.43;0.90;;;11.00;99.90;;;;;;5037186;28;20064;-77
2023/11/02 08:35:04;;;;;;;4.35;0.93;;;11.10;99.90;;;;;;5048261;28;20043;-77
2023/11/02 08:37:29;;;;;;;2.53;0.88;;;11.10;99.90;;;;;;5032048;28;20502;-79
2023/11/02 08:39:56;;;;;;;2.15;0.70;;;11.20;99.90;;;;;;5039942;28;20029;-76
2023/11/02 08:42:21;;;;;;;2.60;0.47;;;11.40;99.90;;;;;;5042474;28;20120;-78
2023/11/02 08:44:47;;;;;;;2.38;0.55;;;11.50;99.90;;;;;;5047993;28;20187;-76
2023/11/02 08:47:13;;;;;;;7.13;0.77;;;11.60;99.90;;;;;;5047365;28;20043;-75
2023/11/02 08:49:40;;;;;;;4.85;1.08;;;11.70;99.90;;;;;;5033634;28;20037;-75
2023/11/02 08:52:06;;;;;;;3.65;1.02;;;11.80;99.90;;;;;;5037291;28;20044;-76
2023/11/02 08:54:31;;;;;;;1.17;0.30;;;11.90;99.90;;;;;;5045471;28;20029;-75
2023/11/02 08:56:57;;;;;;;4.60;0.55;;;12.10;99.90;;;;;;5041806;28;20394;-75
2023/11/02 08:59:22;;;;;;;6.35;1.20;;;12.10;99.90;;;;;;5045163;28;20086;-76
2023/11/02 09:01:50;;;;;;;4.78;0.50;;;12.20;99.90;;;;;;5044648;28;20018;-76
2023/11/02 09:04:16;;;;;;;8.32;1.20;;;12.30;99.90;;;;;;5045301;28;20025;-76
2023/11/02 09:06:43;;;;;;;4.32;1.33;;;12.40;99.90;;;;;;5044242;28;20082;-76
2023/11/02 09:09:11;;;;;;;2.63;0.30;;;12.40;99.90;;;;;;5030112;28;20120;-76
2023/11/02 09:11:36;;;;;;;2.95;0.75;;;12.50;99.90;;;;;;5042515;28;20031;-75
2023/11/02 09:14:02;;;;;;;9.82;0.95;;;12.50;99.90;;;;;;5044090;28;20123;-75
2023/11/02 09:16:28;;;;;;;1.33;0.50;;;12.50;99.90;;;;;;5032979;28;20029;-75
2023/11/02 09:18:54;;;;;;;2.75;0.30;;;12.50;99.90;;;;;;5027058;28;20442;-75
2023/11/02 09:21:20;;;;;;;1.20;0.40;;;12.50;99.90;;;;;;5042495;28;20120;-76
2023/11/02 09:23:46;;;;;;;3.60;0.32;;;12.50;99.90;;;;;;5043275;28;20857;-74
2023/11/02 09:26:12;;;;;;;5.15;0.82;;;12.50;99.90;;;;;;5034133;28;20044;-77
2023/11/02 09:28:37;;;;;;;4.82;0.65;;;12.50;99.90;;;;;;5044313;28;20602;-75
2023/11/02 09:31:04;;;;;;;4.32;0.40;;;12.50;99.90;;;;;;5049705;28;20513;-76
2023/11/02 09:33:29;;;;;;;4.35;0.98;;;12.60;99.90;;;;;;5034150;28;20132;-77
2023/11/02 09:35:55;;;;;;;2.30;0.30;;;12.60;99.90;;;;;;5032583;28;20125;-78
2023/11/02 09:38:21;;;;;;;5.40;0.70;;;12.50;99.90;;;;;;5036356;28;20029;-77
2023/11/02 09:40:46;;;;;;;4.97;0.47;;;12.30;99.90;;;;;;5049576;28;20755;-77
2023/11/02 09:43:12;;;;;;;4.50;0.65;;;12.10;99.90;;;;;;5047485;28;20029;-77
2023/11/02 09:45:38;;;;;;;2.97;0.73;;;11.90;99.90;;;;;;5038067;28;20047;-77
2023/11/02 09:48:04;;;;;;;8.70;0.77;;;11.90;99.90;;;;;;5051175;28;20055;-78
2023/11/02 09:50:30;;;;;;;9.98;1.05;;;12.00;99.90;;;;;;5036674;28;20045;-75
2023/11/02 09:52:56;;;;;;;4.45;0.47;;;12.10;99.90;;;;;;5050433;28;20414;-77
2023/11/02 09:55:23;;;;;;;2.17;0.40;;;12.20;99.90;;;;;;5049628;28;20047;-77
2023/11/02 09:57:52;;;;;;;3.78;0.40;;;12.40;99.90;;;;;;5048102;28;20101;-78
2023/11/02 10:00:18;;;;;;;3.88;0.40;;;12.50;99.90;;;;;;5049429;28;20108;-77
2023/11/02 10:02:48;;;;;;;4.05;0.70;;;12.60;99.90;;;;;;5040681;28;20051;-78
2023/11/02 10:05:17;;;;;;;11.93;0.65;;;12.70;99.90;;;;;;5050988;28;20123;-76
2023/11/02 10:07:44;;;;;;;8.70;1.20;;;12.70;99.90;;;;;;5050094;28;20359;-77
2023/11/02 10:10:13;;;;;;;3.67;0.85;;;12.70;99.90;;;;;;5049268;28;20044;-77
2023/11/02 10:12:39;;;;;;;5.63;0.47;;;12.70;99.90;;;;;;5047774;28;20039;-78
2023/11/02 10:15:06;;;;;;;6.03;0.90;;;12.70;99.90;;;;;;5036798;28;20079;-77
2023/11/02 10:17:35;;;;;;;26.10;0.77;;;12.70;99.90;;;;;;5037779;28;20070;-76
2023/11/02 10:20:08;;;;;;;10.77;1.33;;;12.70;99.90;;;;;;5039710;28;20053;-79
2023/11/02 10:22:34;;;;;;;5.20;0.30;;;12.80;99.90;;;;;;5035168;28;20573;-76
2023/11/02 10:24:59;;;;;;;7.38;0.63;;;12.80;99.90;;;;;;5033352;28;20144;-78
2023/11/02 10:27:26;;;;;;;4.28;0.32;;;12.90;99.90;;;;;;5034770;28;20098;-75
2023/11/02 10:29:52;;;;;;;7.57;0.40;;;12.80;99.90;;;;;;5047957;28;20474;-77
2023/11/02 10:32:21;;;;;;;5.63;0.73;;;12.70;99.90;;;;;;5035885;28;20029;-76
2023/11/02 10:34:46;;;;;;;2.50;0.52;;;12.60;99.90;;;;;;5022309;28;20037;-76
2023/11/02 10:37:12;;;;;;;10.55;1.52;;;12.50;99.90;;;;;;5032450;28;20305;-76
2023/11/02 10:39:38;;;;;;;6.85;0.60;;;12.50;99.90;;;;;;5028058;28;20052;-76
2023/11/02 10:42:04;;;;;;;3.95;0.50;;;12.60;99.90;;;;;;5046552;28;20140;-79
2023/11/02 10:44:37;;;;;;;9.05;0.80;;;12.70;99.90;;;;;;5030006;28;20082;-75
2023/11/02 10:47:04;;;;;;;5.75;0.45;;;12.70;99.90;;;;;;5035466;28;20025;-75
2023/11/02 10:49:35;;;;;;;4.07;0.70;;;12.70;99.90;;;;;;5031620;28;20463;-75
2023/11/02 10:52:05;;;;;;;;;;;12.60;99.90;;;;;;5031737;28;20044;-77
2023/11/02 10:54:55;;;;;;;4.82;0.32;;;12.60;99.90;;;;;;5041616;28;19959;-77
2023/11/02 10:57:22;;;;;;;3.67;0.40;;;12.50;99.90;;;;;;5044910;28;20087;-77
2023/11/02 10:59:48;;;;;;;4.32;0.45;;;12.50;99.90;;;;;;5032588;28;20268;-73
2023/11/02 11:02:15;;;;;;;3.83;0.40;;;12.40;99.90;;;;;;5048639;28;20501;-78
2023/11/02 11:04:42;;;;;;;2.75;0.30;;;12.50;99.90;;;;;;5046288;28;20029;-76
2023/11/02 11:07:09;;;;;;;3.17;0.57;;;12.50;99.90;;;;;;5035874;28;20044;-78
2023/11/02 11:09:40;;;;;;;5.72;0.90;;;12.40;99.90;;;;;;5036666;28;20405;-76
2023/11/02 11:12:06;;;;;;;6.80;0.40;;;12.50;99.90;;;;;;5043976;28;20036;-74
2023/11/02 11:14:35;;;;;;;5.55;1.30;;;12.50;99.90;;;;;;5046967;28;20048;-78
2023/11/02 11:17:01;;;;;;;7.72;0.52;;;12.60;99.90;;;;;;5047132;28;20029;-76
2023/11/02 11:19:34;;;;;;;8.63;1.38;;;12.60;99.90;;;;;;5045125;28;20029;-76
2023/11/02 11:22:09;;;;;;;9.52;0.85;;;12.60;99.90;;;;;;5033547;28;20447;-75
2023/11/02 11:24:34;;;;;;;14.15;0.90;;;12.50;99.90;;;;;;5040199;28;20528;-75
2023/11/02 11:27:04;;;;;;;7.20;0.90;;;12.40;99.90;;;;;;5045665;28;20048;-75
2023/11/02 11:29:35;;;;;;;8.23;1.00;;;12.20;99.90;;;;;;5045304;28;20033;-78
2023/11/02 11:32:04;;;;;;;4.00;1.13;;;12.00;99.90;;;;;;5031083;28;20045;-76
2023/11/02 11:35:01;;;;;;;6.50;0.60;;;11.90;99.90;;;;;;5030084;28;20030;-76
2023/11/02 11:37:52;;;;;;;6.00;0.57;;;11.90;99.90;;;;;;5044269;28;20120;-76
2023/11/02 11:40:21;;;;;;;7.00;0.88;;;11.90;99.90;;;;;;5026557;28;20033;-76
2023/11/02 11:43:01;;;;;;;7.03;0.98;;;11.90;99.90;;;;;;5043819;28;20043;-77
2023/11/02 11:45:33;;;;;;;6.07;0.47;;;11.90;99.90;;;;;;5024883;28;20394;-77
2023/11/02 11:48:00;;;;;;;10.00;1.13;;;11.80;99.90;;;;;;5044936;28;20029;-75
2023/11/02 11:50:35;;;;;;;7.88;0.90;;;11.80;99.90;;;;;;5044446;28;20033;-76
2023/11/02 11:53:17;;;;;;;7.07;0.75;;;11.70;99.90;;;;;;5042373;28;20090;-75
2023/11/02 11:55:44;;;;;;;3.88;0.70;;;11.70;99.90;;;;;;5040846;28;20129;-77
2023/11/02 11:58:10;;;;;;;4.28;0.88;;;11.70;99.90;;;;;;5029098;28;20575;-74
2023/11/02 12:00:50;;;;;;;13.13;1.30;;;11.60;99.90;;;;;;5045406;28;20037;-78
2023/11/02 12:03:39;;;;;;;4.43;0.63;;;11.50;99.90;;;;;;5031253;28;20040;-75
2023/11/02 12:06:06;;;;;;;5.78;0.45;;;11.40;99.90;;;;;;5030506;28;20060;-77
2023/11/02 12:08:44;;;;;;;4.50;1.33;;;11.20;99.90;;;;;;5038996;28;20124;-76
2023/11/02 12:11:13;;;;;;;7.07;0.75;;;11.20;99.90;;;;;;5025654;28;20492;-75
2023/11/02 12:13:49;;;;;;;10.88;1.20;;;11.10;99.90;;;;;;5023489;28;20132;-77
2023/11/02 12:16:15;;;;;;;7.90;1.02;;;11.00;99.90;;;;;;5043476;28;20037;-77
2023/11/02 12:18:42;;;;;;;9.20;1.23;;;10.90;99.90;;;;;;5031535;28;20132;-76
2023/11/02 12:21:17;;;;;;;3.28;0.50;;;10.90;99.90;;;;;;5045104;28;20037;-77
2023/11/02 12:23:44;;;;;;;11.95;0.60;;;11.00;99.90;;;;;;5040480;28;20436;-76
2023/11/02 12:26:10;;;;;;;2.90;0.50;;;10.90;99.90;;;;;;5031909;28;20037;-77
2023/11/02 12:28:52;;;;;;;3.05;0.75;;;10.90;99.90;;;;;;5044640;28;20045;-76
2023/11/02 12:31:29;;;;;;;10.93;0.65;;;10.90;99.90;;;;;;5041343;28;20036;-76
2023/11/02 12:33:56;;;;;;;4.75;0.30;;;10.90;99.90;;;;;;5044628;28;20075;-75
2023/11/02 12:36:22;;;;;;;4.50;0.73;;;10.90;99.90;;;;;;5044799;28;20055;-77
2023/11/02 12:38:50;;;;;;;9.40;0.95;;;10.90;99.90;;;;;;5044554;28;20047;-76
2023/11/02 12:41:42;;;;;;;2.65;0.40;;;10.90;99.90;;;;;;5043241;28;20040;-77
2023/11/02 12:44:10;;;;;;;5.30;0.47;;;11.00;99.90;;;;;;5022241;28;20029;-76
2023/11/02 12:46:41;;;;;;;3.97;0.75;;;11.00;99.90;;;;;;5043547;28;20029;-76
2023/11/02 12:49:22;;;;;;;10.27;0.73;;;11.10;99.90;;;;;;5045213;28;20086;-75
2023/11/02 12:51:50;;;;;;;9.32;1.52;;;11.20;99.90;;;;;;5029943;28;20375;-76
2023/11/02 12:54:17;;;;;;;6.28;0.70;;;11.30;99.90;;;;;;5042294;28;20863;-76
2023/11/02 12:56:45;;;;;;;7.10;1.13;;;11.40;99.90;;;;;;5043728;28;20051;-76
2023/11/02 12:59:12;;;;;;;6.72;0.95;;;11.40;99.90;;;;;;5032904;28;20924;-76
2023/11/02 13:01:55;;;;;;;8.77;1.35;;;11.50;99.90;;;;;;5033158;28;20032;-76
2023/11/02 13:04:23;;;;;;;5.70;1.00;;;11.60;99.90;;;;;;5040569;28;20044;-76
2023/11/02 13:06:51;;;;;;;3.13;1.00;;;11.60;99.90;;;;;;5039007;28;25384;-76
2023/11/02 13:09:17;;;;;;;5.75;0.70;;;11.70;99.90;;;;;;5029014;28;20029;-76
2023/11/02 13:11:50;;;;;;;4.22;0.73;;;11.70;99.90;;;;;;5043682;28;20087;-76
2023/11/02 13:14:24;;;;;;;3.45;0.88;;;11.70;99.90;;;;;;5028893;28;20095;-77
2023/11/02 13:16:51;;;;;;;4.47;0.93;;;11.60;99.90;;;;;;5028701;28;20501;-77